Time;durP1;ratioP1;P1;durP2;ratioP2;P2;SDS_P1;SDS_P2;PMS_P1;PMS_P2;Temp;Humidity;BMP_temperature;BMP_pressure;BME280_temperature;BME280_humidity;BME280_pressure;Samples;Min_cycle;Max_cycle;Signal;HPM_P1;HPM_P2
2023/01/28 00:02:51;;;;;;;1.35;0.95;;;;;;;0.61;100.00;101867.28;6306532;28;20075;-89
2023/01/28 00:06:01;;;;;;;1.83;1.00;;;;;;;0.63;100.00;101868.09;6288027;28;20055;-89
2023/01/28 00:09:03;;;;;;;2.33;0.93;;;;;;;0.60;100.00;101866.44;6303771;28;20039;-89
2023/01/28 00:12:05;;;;;;;0.88;0.80;;;;;;;0.63;100.00;101857.91;6308355;28;20040;-89
2023/01/28 00:15:07;;;;;;;2.00;0.90;;;;;;;0.67;100.00;101868.88;6307784;28;20225;-89
2023/01/28 00:18:09;;;;;;;1.25;1.00;;;;;;;0.81;100.00;101866.97;6306086;28;20051;-88
2023/01/28 00:21:13;;;;;;;2.97;0.80;;;;;;;0.76;100.00;101867.03;6300655;28;20032;-89
2023/01/28 00:24:15;;;;;;;2.22;1.00;;;;;;;0.72;100.00;101867.09;6311809;28;20043;-89
2023/01/28 00:27:16;;;;;;;4.03;1.15;;;;;;;0.71;100.00;101860.34;6309711;28;20044;-89
2023/01/28 00:30:18;;;;;;;1.75;0.88;;;;;;;0.73;100.00;101858.59;6301021;28;20045;-89
2023/01/28 00:33:20;;;;;;;2.47;1.00;;;;;;;0.70;100.00;101864.59;6309687;28;20044;-89
2023/01/28 00:36:24;;;;;;;1.27;0.98;;;;;;;0.72;100.00;101862.88;6310011;28;20630;-88
2023/01/28 00:39:26;;;;;;;2.65;1.80;;;;;;;0.73;100.00;101866.25;6310115;28;20472;-89
2023/01/28 00:42:28;;;;;;;3.17;1.20;;;;;;;0.68;100.00;101870.59;6309946;28;20051;-89
2023/01/28 00:45:30;;;;;;;1.48;1.00;;;;;;;0.69;100.00;101870.53;6300928;28;20418;-88
2023/01/28 00:48:39;;;;;;;3.55;1.17;;;;;;;0.68;100.00;101868.03;6308741;28;20036;-88
2023/01/28 00:51:41;;;;;;;2.15;0.90;;;;;;;0.69;100.00;101872.25;6309438;28;20028;-88
2023/01/28 00:54:43;;;;;;;3.85;1.35;;;;;;;0.67;100.00;101863.78;6311182;28;20051;-88
2023/01/28 00:57:44;;;;;;;3.55;1.08;;;;;;;0.67;100.00;101864.63;6310656;28;20151;-88
2023/01/28 01:00:46;;;;;;;1.08;0.82;;;;;;;0.72;100.00;101862.00;6303175;28;20048;-89
2023/01/28 01:03:56;;;;;;;1.55;0.80;;;;;;;0.69;100.00;101862.06;6288451;28;20043;-88
2023/01/28 01:06:58;;;;;;;1.52;0.93;;;;;;;0.63;100.00;101863.84;6283755;28;20044;-89
2023/01/28 01:10:00;;;;;;;2.03;0.80;;;;;;;0.60;100.00;101858.81;6299941;28;20127;-89
2023/01/28 01:13:04;;;;;;;4.40;1.02;;;;;;;0.58;100.00;101860.53;6289949;28;20052;-88
2023/01/28 01:16:11;;;;;;;3.58;1.00;;;;;;;0.61;100.00;101868.13;6309959;28;20202;-89
2023/01/28 01:19:13;;;;;;;1.38;0.60;;;;;;;0.60;100.00;101863.91;6299934;28;20552;-89
2023/01/28 01:22:16;;;;;;;1.52;0.90;;;;;;;0.57;100.00;101871.59;6310224;28;20393;-89
2023/01/28 01:25:18;;;;;;;3.63;1.10;;;;;;;0.59;100.00;101862.19;6306145;28;20044;-89
2023/01/28 01:28:22;;;;;;;3.53;1.10;;;;;;;0.58;100.00;101850.34;6309169;28;20040;-89
2023/01/28 01:31:26;;;;;;;3.17;1.00;;;;;;;0.56;100.00;101849.53;6293717;28;20524;-89
2023/01/28 01:34:28;;;;;;;2.63;1.17;;;;;;;0.60;100.00;101851.16;6307047;28;20166;-89
2023/01/28 01:37:30;;;;;;;2.72;1.20;;;;;;;0.58;100.00;101863.06;6308417;28;20069;-88
2023/01/28 01:40:32;;;;;;;1.65;1.05;;;;;;;0.56;100.00;101862.25;6306246;28;20497;-88
2023/01/28 01:43:55;;;;;;;1.20;0.95;;;;;;;0.55;100.00;101863.13;6306599;28;20052;-88
2023/01/28 01:46:59;;;;;;;1.33;1.10;;;;;;;0.54;100.00;101871.63;6308766;28;20285;-88
2023/01/28 01:50:06;;;;;;;3.75;1.30;;;;;;;0.67;100.00;101874.81;6309570;28;20078;-88
2023/01/28 01:53:11;;;;;;;2.97;1.05;;;;;;;0.63;100.00;101871.50;6310027;28;20157;-89
2023/01/28 01:56:20;;;;;;;1.92;1.05;;;;;;;0.59;100.00;101867.28;6304810;28;20068;-88
2023/01/28 01:59:27;;;;;;;3.22;1.10;;;;;;;0.63;100.00;101868.94;6299885;28;20055;-88
2023/01/28 02:02:29;;;;;;;3.67;1.10;;;;;;;0.64;100.00;101869.78;6307733;28;20032;-89
2023/01/28 02:05:31;;;;;;;3.58;1.20;;;;;;;0.58;100.00;101873.28;6308707;28;20047;-89
2023/01/28 02:08:33;;;;;;;2.30;1.10;;;;;;;0.53;100.00;101874.22;6300232;28;20358;-89
2023/01/28 02:11:35;;;;;;;2.25;1.15;;;;;;;0.52;100.00;101873.38;6304440;28;20063;-88
2023/01/28 02:14:43;;;;;;;2.33;1.10;;;;;;;0.52;100.00;101875.06;6306967;28;20040;-89
2023/01/28 02:17:46;;;;;;;1.42;1.10;;;;;;;0.53;100.00;101881.84;6308775;28;20115;-88
2023/01/28 02:21:00;;;;;;;3.38;1.20;;;;;;;0.51;100.00;101886.13;6306907;28;20059;-89
2023/01/28 02:24:34;;;;;;;1.48;1.00;;;;;;;0.53;100.00;101889.50;6303235;28;20146;-88
2023/01/28 02:28:14;;;;;;;3.95;1.40;;;;;;;0.51;100.00;101883.59;6300562;28;20052;-88
2023/01/28 02:31:26;;;;;;;1.60;1.00;;;;;;;0.49;100.00;101888.69;6308271;28;20063;-89
2023/01/28 02:34:51;;;;;;;2.30;1.20;;;;;;;0.46;100.00;101881.09;6306076;28;20195;-88
2023/01/28 02:37:57;;;;;;;6.07;1.17;;;;;;;0.47;100.00;101881.94;6307581;28;20536;-89
2023/01/28 02:41:12;;;;;;;2.63;1.08;;;;;;;0.48;100.00;101884.47;6308587;28;20079;-89
2023/01/28 02:44:14;;;;;;;3.95;1.13;;;;;;;0.48;100.00;101881.09;6307638;28;20055;-88
2023/01/28 02:51:09;;;;;;;1.48;0.80;;;;;;;0.47;100.00;101869.19;6311803;28;20528;-89
2023/01/28 02:54:30;;;;;;;1.40;0.90;;;;;;;0.46;100.00;101864.97;6312024;28;20040;-88
2023/01/28 02:57:54;;;;;;;2.28;0.90;;;;;;;0.50;100.00;101875.09;6310786;28;20146;-88
2023/01/28 03:01:25;;;;;;;5.22;1.13;;;;;;;0.58;100.00;101865.63;6310300;28;20485;-88
2023/01/28 03:04:40;;;;;;;1.90;0.70;;;;;;;0.63;100.00;101868.09;6305192;28;20055;-88
2023/01/28 03:07:41;;;;;;;1.88;0.95;;;;;;;0.60;100.00;101870.72;6317610;28;20417;-88
2023/01/28 03:10:43;;;;;;;1.65;0.80;;;;;;;0.48;100.00;101869.19;6310613;28;20055;-88
2023/01/28 03:38:17;;;;;;;3.22;1.00;;;;;;;0.35;100.00;101848.16;6294595;28;20040;-88
2023/01/28 03:41:21;;;;;;;2.85;1.23;;;;;;;0.34;100.00;101858.34;6294284;28;20047;-88
2023/01/28 03:47:44;;;;;;;3.42;1.40;;;;;;;0.25;100.00;101861.03;6308167;28;20036;-88
2023/01/28 03:50:47;;;;;;;6.47;1.40;;;;;;;0.29;100.00;101866.06;6306335;28;20044;-88
2023/01/28 03:53:49;;;;;;;3.35;1.10;;;;;;;0.29;100.00;101858.41;6305309;28;20036;-88
2023/01/28 03:56:51;;;;;;;3.65;0.98;;;;;;;0.46;100.00;101870.06;6306508;28;20553;-88
2023/01/28 03:59:53;;;;;;;1.48;1.08;;;;;;;0.37;100.00;101871.03;6311303;28;20498;-88
2023/01/28 04:02:56;;;;;;;2.17;1.20;;;;;;;0.34;100.00;101868.53;6303741;28;20040;-88
2023/01/28 04:06:01;;;;;;;1.77;0.90;;;;;;;0.36;100.00;101871.91;6307558;28;20037;-88
2023/01/28 04:09:22;;;;;;;1.70;1.00;;;;;;;0.38;100.00;101872.75;6286969;28;20047;-88
2023/01/28 04:12:30;;;;;;;1.33;1.00;;;;;;;0.33;100.00;101874.50;6311595;28;20108;-88
2023/01/28 04:15:34;;;;;;;1.48;1.08;;;;;;;0.38;100.00;101882.94;6307598;28;20044;-88
2023/01/28 04:18:37;;;;;;;1.30;0.98;;;;;;;0.33;100.00;101893.19;6310489;28;20051;-88
2023/01/28 04:21:39;;;;;;;1.35;1.00;;;;;;;0.30;100.00;101894.91;6302111;28;20044;-88
2023/01/28 04:24:42;;;;;;;3.58;1.20;;;;;;;0.31;100.00;101905.09;6305701;28;20040;-88
2023/01/28 04:27:44;;;;;;;2.13;1.00;;;;;;;0.40;100.00;101904.97;6293455;28;20832;-88
2023/01/28 04:30:58;;;;;;;3.15;0.90;;;;;;;0.33;100.00;101893.19;6310640;28;20043;-88
2023/01/28 04:34:16;;;;;;;3.13;1.23;;;;;;;0.37;100.00;101901.59;6305345;28;20052;-88
2023/01/28 04:37:40;;;;;;;3.20;1.50;;;;;;;0.31;100.00;101900.00;6239028;28;20038;-88
2023/01/28 04:41:00;;;;;;;2.20;1.60;;;;;;;0.25;100.00;101901.78;6246029;28;20045;-88
2023/01/28 04:44:05;;;;;;;2.22;1.30;;;;;;;0.25;100.00;101896.69;6202452;28;20140;-88
2023/01/28 04:47:27;;;;;;;1.73;1.10;;;;;;;0.24;100.00;101905.19;6233822;28;20045;-88
2023/01/28 04:50:49;;;;;;;1.83;1.10;;;;;;;0.33;100.00;101900.81;6234026;28;20703;-88
2023/01/28 04:53:54;;;;;;;4.18;1.80;;;;;;;0.28;100.00;101902.59;6217599;28;20305;-88
2023/01/28 04:57:09;;;;;;;1.73;1.02;;;;;;;0.14;100.00;101900.22;6234330;28;20045;-88
2023/01/28 05:00:12;;;;;;;3.35;1.23;;;;;;;0.09;100.00;101907.06;6215957;28;20060;-88
2023/01/28 05:03:13;;;;;;;1.30;1.20;;;;;;;0.12;100.00;101911.28;6216963;28;20042;-88
2023/01/28 05:06:15;;;;;;;2.15;1.40;;;;;;;0.08;100.00;101907.94;6239388;28;20050;-88
2023/01/28 05:09:19;;;;;;;3.78;1.40;;;;;;;0.09;100.00;101906.25;6226312;28;20037;-88
2023/01/28 05:12:22;;;;;;;5.05;1.20;;;;;;;0.09;100.00;101899.44;6218872;28;20590;-88
2023/01/28 05:15:24;;;;;;;5.13;1.15;;;;;;;0.11;100.00;101901.97;6273707;28;20174;-89
2023/01/28 05:18:28;;;;;;;1.98;1.10;;;;;;;0.23;100.00;101906.06;6309311;28;20527;-88
2023/01/28 05:21:50;;;;;;;1.85;1.27;;;;;;;0.40;100.00;101912.59;6299535;28;20047;-88
2023/01/28 05:25:10;;;;;;;2.08;1.30;;;;;;;0.27;100.00;101905.16;6309477;28;20040;-89
2023/01/28 05:28:12;;;;;;;2.17;1.27;;;;;;;0.20;100.00;101905.25;6306978;28;20040;-88
2023/01/28 05:31:14;;;;;;;3.30;1.67;;;;;;;0.17;100.00;101904.44;6305626;28;20516;-88
2023/01/28 05:34:16;;;;;;;3.70;1.70;;;;;;;0.09;100.00;101896.91;6307700;28;20055;-88
2023/01/28 05:37:18;;;;;;;5.18;1.45;;;;;;;0.08;100.00;101897.78;6308165;28;20040;-89
2023/01/28 05:40:20;;;;;;;3.65;1.40;;;;;;;0.05;100.00;101895.28;6306707;28;20063;-88
2023/01/28 05:43:22;;;;;;;2.65;1.60;;;;;;;0.08;100.00;101895.22;6306988;28;20048;-88
2023/01/28 05:46:45;;;;;;;3.80;1.52;;;;;;;0.07;100.00;101890.97;6307791;28;20092;-88
2023/01/28 05:50:07;;;;;;;4.00;1.45;;;;;;;0.03;100.00;101891.91;6306854;28;20043;-89
2023/01/28 05:53:41;;;;;;;1.60;1.40;;;;;;;-0.02;100.00;101893.66;6308395;28;20104;-88
2023/01/28 05:56:43;;;;;;;1.50;1.25;;;;;;;-0.05;100.00;101904.72;6308074;28;20047;-88
2023/01/28 05:59:45;;;;;;;4.00;1.60;;;;;;;0.00;100.00;101899.59;6296567;28;20473;-88
2023/01/28 06:02:47;;;;;;;1.58;1.33;;;;;;;-0.06;100.00;101897.94;6312131;28;20043;-88
2023/01/28 06:05:49;;;;;;;1.38;1.08;;;;;;;-0.04;100.00;101896.22;6311907;28;20096;-89
2023/01/28 06:08:51;;;;;;;2.47;1.20;;;;;;;-0.03;100.00;101902.16;6313187;28;20074;-88
2023/01/28 06:11:59;;;;;;;4.70;1.80;;;;;;;-0.06;100.00;101895.38;6283626;28;20044;-88
2023/01/28 06:15:01;;;;;;;1.63;1.50;;;;;;;-0.06;100.00;101900.47;6288103;28;20488;-88
2023/01/28 06:18:23;;;;;;;3.63;1.88;;;;;;;-0.06;100.00;101904.72;6257927;28;20499;-88
2023/01/28 06:21:25;;;;;;;3.38;1.60;;;;;;;-0.07;100.00;101898.81;6240635;28;20589;-88
2023/01/28 06:24:31;;;;;;;3.45;1.45;;;;;;;-0.07;100.00;101895.44;6240450;28;20127;-88
2023/01/28 06:27:33;;;;;;;4.38;1.65;;;;;;;-0.06;100.00;101902.19;6261802;28;20454;-88
2023/01/28 06:30:35;;;;;;;1.65;1.40;;;;;;;-0.07;100.00;101900.53;6260823;28;20443;-89
2023/01/28 06:33:36;;;;;;;2.30;1.60;;;;;;;-0.10;100.00;101900.53;6261845;28;20059;-88
2023/01/28 06:36:38;;;;;;;2.63;1.50;;;;;;;-0.11;100.00;101909.88;6261029;28;20045;-88
2023/01/28 06:39:40;;;;;;;3.63;1.50;;;;;;;-0.14;100.00;101917.56;6261480;28;20085;-88
2023/01/28 06:42:42;;;;;;;4.18;1.90;;;;;;;-0.14;100.00;101906.53;6261299;28;20408;-89
2023/01/28 06:45:44;;;;;;;1.88;1.70;;;;;;;-0.11;100.00;101906.50;6242462;28;20131;-89
2023/01/28 06:48:45;;;;;;;4.68;1.95;;;;;;;-0.12;100.00;101904.81;6260505;28;20511;-88
2023/01/28 06:51:47;;;;;;;1.52;1.38;;;;;;;-0.12;100.00;101907.38;6260840;28;20696;-89
2023/01/28 06:54:49;;;;;;;3.55;1.85;;;;;;;-0.13;100.00;101910.75;6260061;28;20051;-88
2023/01/28 06:57:51;;;;;;;3.25;2.03;;;;;;;-0.09;100.00;101907.31;6312870;28;20762;-88
2023/01/28 07:00:53;;;;;;;3.22;1.83;;;;;;;-0.07;100.00;101908.16;6310739;28;20196;-88
2023/01/28 07:03:55;;;;;;;1.70;1.52;;;;;;;-0.12;100.00;101912.47;6308054;28;20048;-88
2023/01/28 07:06:57;;;;;;;4.53;1.88;;;;;;;-0.13;100.00;101905.66;6293183;28;20491;-88
2023/01/28 07:09:58;;;;;;;1.80;1.70;;;;;;;-0.15;100.00;101913.34;6307775;28;20048;-88
2023/01/28 07:13:00;;;;;;;5.80;1.77;;;;;;;-0.07;100.00;101918.34;6308171;28;20150;-88
2023/01/28 07:16:02;;;;;;;2.85;1.60;;;;;;;-0.13;100.00;101909.03;6312278;28;20040;-88
2023/01/28 07:19:04;;;;;;;1.73;1.58;;;;;;;-0.14;100.00;101907.38;6312944;28;20693;-88
2023/01/28 07:22:06;;;;;;;2.30;1.60;;;;;;;-0.15;100.00;101912.47;6306718;28;20040;-89
2023/01/28 07:25:09;;;;;;;3.00;1.70;;;;;;;-0.15;100.00;101908.25;6305767;28;20040;-88
2023/01/28 07:28:11;;;;;;;2.08;1.67;;;;;;;-0.04;100.00;101915.75;6314005;28;20028;-88
2023/01/28 07:31:13;;;;;;;1.63;1.52;;;;;;;-0.12;100.00;101913.28;6312014;28;20141;-88
2023/01/28 07:34:15;;;;;;;3.83;1.88;;;;;;;-0.11;100.00;101916.69;6314221;28;20032;-88
2023/01/28 07:37:17;;;;;;;4.18;2.22;;;;;;;-0.11;100.00;101920.06;6313352;28;20299;-88
2023/01/28 07:40:20;;;;;;;2.13;1.90;;;;;;;-0.09;100.00;101925.13;6298780;28;20902;-88
2023/01/28 07:43:21;;;;;;;2.38;1.98;;;;;;;-0.08;100.00;101916.63;6307681;28;20051;-89
2023/01/28 07:46:24;;;;;;;4.07;1.85;;;;;;;-0.13;100.00;101926.88;6297285;28;20042;-88
2023/01/28 07:49:25;;;;;;;2.08;1.70;;;;;;;-0.11;100.00;101919.22;6288960;28;20048;-88
2023/01/28 07:52:27;;;;;;;5.07;1.98;;;;;;;-0.08;100.00;101935.28;6311242;28;20048;-88
2023/01/28 07:55:30;;;;;;;4.32;2.00;;;;;;;0.00;100.00;101932.66;6308535;28;20345;-88
2023/01/28 07:58:33;;;;;;;8.05;2.70;;;;;;;0.06;100.00;101932.59;6311671;28;20082;-88
2023/01/28 08:01:35;;;;;;;3.47;2.53;;;;;;;0.11;100.00;101930.81;6309284;28;20059;-88
2023/01/28 08:04:39;;;;;;;2.78;1.80;;;;;;;0.17;100.00;101929.88;6311569;28;20052;-88
2023/01/28 08:07:41;;;;;;;3.33;2.03;;;;;;;0.24;100.00;101940.84;6311182;28;20044;-89
2023/01/28 08:10:43;;;;;;;2.33;2.10;;;;;;;0.28;100.00;101935.69;6312694;28;20512;-89
2023/01/28 08:13:45;;;;;;;2.45;1.80;;;;;;;0.29;100.00;101939.06;6305451;28;20059;-88
2023/01/28 08:16:47;;;;;;;2.83;1.83;;;;;;;0.34;100.00;101937.31;6307173;28;20633;-89
2023/01/28 08:19:49;;;;;;;4.43;2.03;;;;;;;0.38;100.00;101947.44;6303766;28;20421;-88
2023/01/28 08:22:50;;;;;;;3.53;2.10;;;;;;;0.41;100.00;101949.94;6310961;28;20482;-88
2023/01/28 08:25:53;;;;;;;2.92;2.60;;;;;;;0.45;100.00;101968.59;6307016;28;20049;-88
2023/01/28 08:28:55;;;;;;;4.90;2.60;;;;;;;0.48;100.00;101971.09;6308579;28;20044;-88
2023/01/28 08:31:57;;;;;;;3.33;2.40;;;;;;;0.47;100.00;101968.53;6310087;28;20043;-89
2023/01/28 08:34:59;;;;;;;4.13;2.67;;;;;;;0.45;100.00;101972.81;6311792;28;20025;-88
2023/01/28 08:38:02;;;;;;;3.58;2.40;;;;;;;0.40;100.00;101981.38;6309419;28;20165;-88
2023/01/28 08:41:04;;;;;;;3.10;2.35;;;;;;;0.56;100.00;101981.16;6310623;28;20055;-88
2023/01/28 08:44:06;;;;;;;3.47;2.20;;;;;;;0.55;100.00;101989.69;6304476;28;20051;-89
2023/01/28 08:47:08;;;;;;;2.40;2.00;;;;;;;0.55;100.00;101989.69;6308922;28;20068;-89
2023/01/28 08:50:10;;;;;;;5.03;2.08;;;;;;;0.62;100.00;101992.13;6298563;28;20040;-88
2023/01/28 08:53:14;;;;;;;2.65;2.33;;;;;;;0.63;100.00;101996.34;6271952;28;20040;-88
2023/01/28 08:56:16;;;;;;;4.47;2.60;;;;;;;0.82;100.00;101996.94;6310611;28;20119;-88
2023/01/28 08:59:18;;;;;;;3.97;2.42;;;;;;;0.97;100.00;102006.06;6310126;28;20043;-88
2023/01/28 09:02:20;;;;;;;3.08;2.53;;;;;;;1.14;100.00;102010.03;6308756;28;20561;-89
2023/01/28 09:05:36;;;;;;;3.92;2.13;;;;;;;1.14;100.00;102010.88;6284470;28;20044;-88
2023/01/28 09:08:38;;;;;;;4.28;1.90;;;;;;;1.30;100.00;102016.59;6304672;28;20092;-89
2023/01/28 09:11:40;;;;;;;3.95;1.70;;;;;;;1.36;100.00;102019.03;6306451;28;20454;-89
2023/01/28 09:14:42;;;;;;;3.03;1.95;;;;;;;1.64;100.00;102028.75;6310023;28;20397;-89
2023/01/28 09:17:43;;;;;;;3.83;2.03;;;;;;;1.71;100.00;102035.44;6311461;28;20876;-89
2023/01/28 09:20:45;;;;;;;2.63;1.95;;;;;;;1.58;100.00;102039.94;6301865;28;20055;-89
2023/01/28 09:23:47;;;;;;;3.83;2.13;;;;;;;1.25;100.00;102044.72;6301757;28;20033;-90
2023/01/28 09:26:49;;;;;;;6.03;2.40;;;;;;;1.05;100.00;102034.81;6300310;28;20596;-90
2023/01/28 09:29:51;;;;;;;2.63;2.35;;;;;;;0.91;100.00;102044.38;6311217;28;20040;-90
2023/01/28 09:32:54;;;;;;;3.25;2.00;;;;;;;0.81;100.00;102050.47;6301962;28;20543;-89
2023/01/28 09:35:59;;;;;;;2.65;1.98;;;;;;;0.73;100.00;102055.66;6300161;28;20501;-89
2023/01/28 09:39:02;;;;;;;4.13;2.75;;;;;;;0.68;100.00;102062.53;6300430;28;20048;-89
2023/01/28 09:42:35;;;;;;;4.53;2.30;;;;;;;0.56;100.00;102063.53;6301120;28;20273;-89
2023/01/28 09:45:41;;;;;;;6.20;2.60;;;;;;;0.48;100.00;102064.50;6309857;28;20051;-89
2023/01/28 09:48:51;;;;;;;6.70;2.50;;;;;;;0.40;100.00;102056.94;6305891;28;20047;-89
2023/01/28 09:51:54;;;;;;;3.28;2.33;;;;;;;0.42;100.00;102050.09;6305438;28;20040;-90
2023/01/28 09:55:15;;;;;;;2.63;2.30;;;;;;;0.50;100.00;102053.44;6310402;28;20028;-89
2023/01/28 09:58:17;;;;;;;;;;;;;;;0.63;100.00;102057.50;6306937;28;20045;-89
2023/01/28 10:02:02;;;;;;;2.88;2.08;;;;;;;0.70;100.00;102059.97;6305567;28;19924;-89
2023/01/28 10:05:32;;;;;;;3.15;2.72;;;;;;;0.62;100.00;102065.16;6171620;28;20547;-89
2023/01/28 10:08:57;;;;;;;3.72;2.53;;;;;;;0.51;100.00;102060.19;6174966;28;20076;-89
2023/01/28 10:12:36;;;;;;;3.17;2.38;;;;;;;0.40;100.00;102059.50;6172378;28;20401;-89
2023/01/28 10:15:40;;;;;;;4.43;3.40;;;;;;;0.35;100.00;102054.44;6169650;28;20063;-89
2023/01/28 10:19:01;;;;;;;8.07;4.72;;;;;;;0.38;100.00;102051.88;6167338;28;20911;-89
2023/01/28 10:22:20;;;;;;;4.95;3.38;;;;;;;0.31;100.00;102045.16;6168056;28;20063;-89
2023/01/28 10:25:27;;;;;;;6.10;3.22;;;;;;;0.31;100.00;102049.41;6160663;28;20213;-90
2023/01/28 10:28:29;;;;;;;6.35;3.97;;;;;;;0.48;100.00;102037.31;6168824;28;20082;-89
2023/01/28 10:31:39;;;;;;;5.20;3.92;;;;;;;0.53;100.00;102037.25;6157118;28;20083;-89
2023/01/28 10:34:41;;;;;;;3.45;2.95;;;;;;;0.90;100.00;102039.31;6168472;28;20137;-89
2023/01/28 10:37:43;;;;;;;6.55;3.30;;;;;;;1.15;100.00;102039.78;6175229;28;20046;-89
2023/01/28 10:40:46;;;;;;;5.47;3.22;;;;;;;1.23;100.00;102043.91;6187163;28;20424;-89
2023/01/28 10:43:49;;;;;;;4.40;3.08;;;;;;;1.32;100.00;102052.25;6296722;28;20374;-89
2023/01/28 10:46:54;;;;;;;4.28;2.83;;;;;;;1.37;100.00;102051.34;6294762;28;20458;-89
2023/01/28 10:50:01;;;;;;;3.75;3.25;;;;;;;1.32;100.00;102045.47;6298457;28;20796;-89
2023/01/28 10:53:05;;;;;;;4.63;3.45;;;;;;;1.29;100.00;102054.03;6299370;28;20045;-90
2023/01/28 10:56:09;;;;;;;4.35;3.00;;;;;;;1.32;100.00;102042.94;6305122;28;20032;-89
2023/01/28 10:59:31;;;;;;;3.63;3.33;;;;;;;1.22;100.00;102060.06;6302073;28;20086;-89
2023/01/28 11:02:35;;;;;;;5.28;3.05;;;;;;;1.19;100.00;102049.06;6301079;28;20509;-89
2023/01/28 11:05:37;;;;;;;4.28;3.05;;;;;;;1.19;100.00;102047.38;6306211;28;20209;-89
2023/01/28 11:08:45;;;;;;;7.00;3.55;;;;;;;1.26;100.00;102055.75;6300276;28;20029;-89
2023/01/28 11:11:47;;;;;;;3.75;3.08;;;;;;;1.19;100.00;102047.38;6303563;28;20067;-89
2023/01/28 11:15:03;;;;;;;4.70;3.47;;;;;;;1.19;100.00;102047.38;6298284;28;20032;-89
2023/01/28 11:18:15;;;;;;;3.72;3.35;;;;;;;1.21;100.00;102042.22;6306615;28;20048;-89
2023/01/28 11:21:20;;;;;;;4.68;3.63;;;;;;;1.20;100.00;102050.75;6307789;28;20048;-89
2023/01/28 11:24:27;;;;;;;4.75;3.30;;;;;;;1.13;100.00;102046.63;6304940;28;20112;-89
2023/01/28 11:27:32;;;;;;;3.95;3.35;;;;;;;1.10;100.00;102041.56;6313510;28;20040;-89
2023/01/28 11:30:39;;;;;;;6.68;2.88;;;;;;;1.10;100.00;102039.84;6308719;28;20047;-89
2023/01/28 11:34:00;;;;;;;6.95;3.70;;;;;;;1.08;100.00;102036.47;6310597;28;20459;-90
2023/01/28 11:37:02;;;;;;;;;;;;;;;0.94;100.00;102038.38;6305826;28;20040;-89
2023/01/28 11:40:19;;;;;;;3.17;2.80;;;;;;;1.05;100.00;102037.38;6302153;28;19975;-89
2023/01/28 11:43:28;;;;;;;3.50;3.20;;;;;;;1.06;100.00;102033.09;6302859;28;20036;-89
2023/01/28 11:46:46;;;;;;;3.83;3.15;;;;;;;1.22;100.00;102026.91;6302195;28;20043;-89
2023/01/28 11:50:27;;;;;;;3.92;3.15;;;;;;;1.46;100.00;102022.28;6291672;28;20529;-89
2023/01/28 11:53:39;;;;;;;2.70;2.50;;;;;;;1.46;100.00;102007.78;6303926;28;20089;-89
2023/01/28 11:56:59;;;;;;;4.82;2.95;;;;;;;1.62;100.00;102005.00;6303892;28;20051;-90
2023/01/28 12:00:38;;;;;;;6.05;3.90;;;;;;;1.81;100.00;101996.13;6307329;28;20036;-89
2023/01/28 12:04:03;;;;;;;4.70;3.13;;;;;;;1.92;100.00;101989.09;6301358;28;20097;-90
2023/01/28 12:07:32;;;;;;;4.93;3.20;;;;;;;2.00;100.00;101990.69;6310342;28;20048;-90
2023/01/28 12:10:40;;;;;;;3.80;3.40;;;;;;;2.16;100.00;101992.03;6300035;28;20410;-90
2023/01/28 12:13:56;;;;;;;5.55;3.15;;;;;;;2.31;100.00;101993.44;6312499;28;20039;-90
2023/01/28 12:17:16;;;;;;;3.50;3.20;;;;;;;2.20;100.00;101991.09;6302360;28;20081;-89
2023/01/28 12:20:30;;;;;;;4.25;3.00;;;;;;;2.20;100.00;101987.72;6302145;28;20517;-89
2023/01/28 12:23:56;;;;;;;3.83;3.28;;;;;;;2.04;100.00;101961.66;6312381;28;20044;-90
2023/01/28 12:27:19;;;;;;;4.80;3.45;;;;;;;1.67;100.00;101941.94;6306466;28;20150;-90
2023/01/28 12:30:33;;;;;;;4.13;3.70;;;;;;;1.36;100.00;101919.53;6299710;28;20244;-90
2023/01/28 12:34:12;;;;;;;4.68;3.45;;;;;;;1.17;100.00;101907.97;6298244;28;20044;-90
2023/01/28 12:37:32;;;;;;;5.85;3.90;;;;;;;0.92;100.00;101888.03;6297425;28;20040;-90
2023/01/28 12:41:12;;;;;;;4.10;3.70;;;;;;;0.89;100.00;101887.22;6293550;28;20113;-90
2023/01/28 12:44:22;;;;;;;5.10;3.90;;;;;;;0.80;100.00;101866.13;6233391;28;20498;-90
2023/01/28 12:47:34;;;;;;;4.78;3.65;;;;;;;0.91;100.00;101867.66;6233479;28;20045;-90
2023/01/28 12:50:41;;;;;;;5.47;3.90;;;;;;;1.05;100.00;101870.81;6232858;28;20044;-90
2023/01/28 12:53:52;;;;;;;4.60;3.67;;;;;;;0.98;100.00;101851.38;6232434;28;20132;-90
2023/01/28 12:56:55;;;;;;;4.47;3.42;;;;;;;1.07;100.00;101854.63;6231887;28;20127;-90
2023/01/28 13:00:18;;;;;;;4.97;3.63;;;;;;;0.92;100.00;101892.25;6231828;28;20081;-89
2023/01/28 13:03:59;;;;;;;4.10;3.70;;;;;;;0.67;100.00;101894.38;6213052;28;20396;-90
2023/01/28 13:07:12;;;;;;;4.25;3.65;;;;;;;0.42;100.00;101894.72;6214778;28;20065;-90
2023/01/28 13:10:21;;;;;;;5.47;3.38;;;;;;;0.22;100.00;101877.19;6228568;28;20049;-90
2023/01/28 13:13:31;;;;;;;5.70;3.67;;;;;;;0.09;100.00;101865.50;6230109;28;20411;-89
2023/01/28 13:16:33;;;;;;;5.05;3.60;;;;;;;-0.04;100.00;101875.84;6231618;28;20240;-89
2023/01/28 13:19:40;;;;;;;6.05;3.72;;;;;;;-0.17;100.00;101881.97;6297306;28;20040;-90
2023/01/28 13:22:43;;;;;;;6.20;3.90;;;;;;;-0.28;100.00;101894.81;6296465;28;20137;-89
2023/01/28 13:25:53;;;;;;;6.78;4.47;;;;;;;-0.21;100.00;101898.13;6294469;28;20494;-90
2023/01/28 13:29:08;;;;;;;6.05;3.58;;;;;;;-0.16;100.00;101900.63;6295895;28;20083;-90
2023/01/28 13:32:33;;;;;;;5.28;3.60;;;;;;;-0.10;100.00;101913.25;6298246;28;20493;-89
2023/01/28 13:35:38;;;;;;;4.82;3.80;;;;;;;-0.12;100.00;101920.09;6293470;28;20040;-90
2023/01/28 13:38:40;;;;;;;5.18;3.60;;;;;;;-0.14;100.00;101921.81;6295929;28;20037;-90
2023/01/28 13:41:51;;;;;;;4.00;3.20;;;;;;;-0.11;100.00;101930.22;6297312;28;20048;-90
2023/01/28 13:44:53;;;;;;;3.33;3.00;;;;;;;-0.07;100.00;101934.44;6297294;28;20497;-90
2023/01/28 13:48:53;;;;;;;4.80;3.38;;;;;;;-0.01;100.00;101936.06;6292706;28;20166;-89
2023/01/28 13:52:03;;;;;;;4.75;3.50;;;;;;;-0.02;100.00;101940.31;6227216;28;20088;-90
2023/01/28 13:55:43;;;;;;;4.47;4.07;;;;;;;0.00;100.00;101935.22;6228045;28;20060;-89
2023/01/28 13:59:05;;;;;;;4.47;3.80;;;;;;;-0.06;100.00;101923.38;6231195;28;20052;-90
2023/01/28 14:02:44;;;;;;;7.13;4.30;;;;;;;0.03;100.00;101925.00;6204301;28;20053;-89
2023/01/28 14:06:32;;;;;;;4.50;3.67;;;;;;;-0.11;100.00;101924.31;6231021;28;20049;-90
2023/01/28 14:09:53;;;;;;;5.78;4.50;;;;;;;-0.12;100.00;101915.84;6215106;28;20519;-90
2023/01/28 14:13:11;;;;;;;6.43;4.20;;;;;;;-0.11;100.00;101909.03;6231638;28;20038;-90
2023/01/28 14:16:39;;;;;;;5.82;4.80;;;;;;;-0.13;100.00;101893.78;6209432;28;20132;-89
2023/01/28 14:19:43;;;;;;;6.38;4.88;;;;;;;-0.16;100.00;101867.53;6234204;28;20037;-90
2023/01/28 14:22:46;;;;;;;5.65;4.40;;;;;;;-0.12;100.00;101861.56;6285836;28;20067;-90
2023/01/28 14:25:57;;;;;;;6.85;4.55;;;;;;;-0.16;100.00;101865.84;6308346;28;20102;-90
2023/01/28 14:29:23;;;;;;;6.00;5.00;;;;;;;-0.29;100.00;101865.16;6304802;28;20044;-89
2023/01/28 14:32:28;;;;;;;6.22;5.60;;;;;;;-0.32;100.00;101855.03;6307247;28;20130;-90
2023/01/28 14:35:33;;;;;;;7.25;5.72;;;;;;;-0.29;100.00;101870.25;6314008;28;20044;-90
2023/01/28 14:38:39;;;;;;;7.53;5.57;;;;;;;-0.30;100.00;101878.75;6314653;28;20048;-90
2023/01/28 14:41:44;;;;;;;5.50;4.70;;;;;;;-0.27;100.00;101899.06;6314350;28;20036;-89
2023/01/28 14:44:52;;;;;;;6.57;5.05;;;;;;;-0.02;100.00;101908.94;6313122;28;20037;-90
2023/01/28 14:48:49;;;;;;;10.00;5.50;;;;;;;-0.06;100.00;101905.56;6312796;28;20047;-89
2023/01/28 14:52:39;;;;;;;6.90;5.40;;;;;;;-0.20;100.00;101901.50;6200622;28;20490;-89
2023/01/28 14:56:08;;;;;;;7.93;5.32;;;;;;;-0.35;100.00;101902.53;6212149;28;20053;-89
2023/01/28 14:59:10;;;;;;;6.18;5.22;;;;;;;-0.43;100.00;101900.06;6212010;28;20045;-89
2023/01/28 15:02:20;;;;;;;6.10;5.00;;;;;;;-0.54;100.00;101891.72;6212282;28;20058;-89
2023/01/28 15:05:25;;;;;;;7.67;5.40;;;;;;;-0.55;100.00;101890.03;6211853;28;20080;-89
2023/01/28 15:08:27;;;;;;;5.95;4.47;;;;;;;-0.57;100.00;101895.16;6212156;28;20054;-89
2023/01/28 15:11:28;;;;;;;5.45;4.90;;;;;;;-0.58;100.00;101900.25;6211604;28;20100;-89